.
WxDataArchive / Data Records for 2010-05-08
2010-05-07 May 2010 2010-05-09

Data Records for Saturday, 08 May 2010

Time	Temp	Chill	HIndex	Humid	Dewpt	 Wind 	HiWind	WindDir	Rain 	Barom 
-----	----	-----	------	-----	-----	------	------	-------	-----	----- 
00:00	56.2	56.2	56.2	79	49.8	5	10	270	0.00	29.669 
00:05	55.9	55.9	55.9	78	49.1	3	6	270	0.00	29.669 
00:10	55.6	55.6	55.6	77	48.5	4	9	270	0.00	29.669 
00:15	55.4	55.4	55.4	76	48.0	4	11	270	0.00	29.663 
00:20	55.3	55.3	55.3	77	48.2	4	8	270	0.00	29.663 
00:25	55.3	55.3	55.3	76	47.9	4	10	270	0.00	29.663 
00:30	55.3	55.3	55.3	74	47.2	5	11	270	0.00	29.673 
00:35	55.3	55.3	55.3	74	47.2	4	7	270	0.00	29.673 
00:40	55.1	55.1	55.1	76	47.7	5	9	270	0.00	29.673 
00:45	54.8	54.8	54.8	76	47.4	5	13	270	0.00	29.675 
00:50	54.5	54.5	54.5	75	46.7	4	10	270	0.00	29.675 
00:55	54.2	54.2	54.2	73	45.7	5	11	270	0.00	29.675 
01:00	53.8	53.8	53.8	70	44.2	6	10	270	0.00	29.681 
01:05	53.5	53.5	53.5	65	42.0	8	13	270	0.00	29.681 
01:10	53.3	53.3	53.3	67	42.6	5	12	270	0.00	29.681 
01:15	53.1	53.1	53.1	68	42.8	4	8	270	0.00	29.686 
01:20	53.1	53.1	53.1	69	43.2	4	9	270	0.00	29.686 
01:25	53.1	53.1	53.1	71	43.9	4	10	270	0.00	29.686 
01:30	52.6	52.6	52.6	70	43.1	5	15	270	0.00	29.689 
01:35	52.2	52.2	52.2	69	42.3	5	13	270	0.00	29.689 
01:40	51.9	51.9	51.9	70	42.4	5	10	270	0.00	29.689 
01:45	51.6	51.6	51.6	71	42.5	5	10	270	0.00	29.693 
01:50	51.3	51.3	51.3	72	42.6	4	9	270	0.00	29.693 
01:55	51.3	51.3	51.3	72	42.6	4	9	270	0.00	29.693 
02:00	51.0	51.0	51.0	72	42.3	4	10	270	0.00	29.694 
02:05	51.0	51.0	51.0	71	41.9	5	10	270	0.00	29.694 
02:10	50.8	50.8	50.8	71	41.7	5	11	270	0.00	29.694 
02:15	51.0	51.0	51.0	71	41.9	4	11	270	0.00	29.700 
02:20	51.0	51.0	51.0	70	41.6	5	9	270	0.00	29.700 
02:25	51.1	51.1	51.1	71	42.0	4	8	270	0.00	29.700 
02:30	51.0	51.0	51.0	71	41.9	3	9	270	0.00	29.702 
02:35	51.0	51.0	51.0	69	41.2	4	11	270	0.00	29.702 
02:40	50.8	50.8	50.8	70	41.4	4	9	270	0.00	29.702 
02:45	50.8	50.8	50.8	70	41.4	4	10	248	0.00	29.700 
02:50	50.7	50.7	50.7	71	41.6	4	9	270	0.00	29.700 
02:55	50.4	50.4	50.4	72	41.7	5	11	270	0.00	29.700 
03:00	50.4	50.4	50.4	72	41.7	4	9	270	0.00	29.701 
03:05	50.2	50.2	50.2	71	41.2	5	10	270	0.00	29.701 
03:10	50.1	50.1	50.1	70	40.7	4	9	270	0.00	29.701 
03:15	49.9	48.8	49.9	69	40.1	4	10	270	0.00	29.696 
03:20	49.8	48.0	49.8	69	40.0	5	10	270	0.00	29.696 
03:25	49.6	48.4	49.6	69	39.9	4	7	270	0.00	29.696 
03:30	49.6	48.4	49.6	69	39.9	4	7	270	0.00	29.696 
03:35	49.6	48.4	49.6	69	39.9	4	11	270	0.00	29.696 
03:40	49.6	49.6	49.6	69	39.9	3	7	270	0.00	29.696 
03:45	49.6	49.6	49.6	69	39.9	3	6	270	0.00	29.697 
03:50	49.5	49.5	49.5	68	39.4	3	7	248	0.00	29.697 
03:55	49.6	48.4	49.6	68	39.5	4	11	270	0.00	29.697 
04:00	49.6	49.6	49.6	69	39.9	3	6	270	0.00	29.696 
04:05	49.6	48.4	49.6	69	39.9	4	9	248	0.00	29.696 
04:10	49.6	48.4	49.6	69	39.9	4	7	248	0.00	29.696 
04:15	49.6	48.4	49.6	69	39.9	4	9	248	0.00	29.693 
04:20	49.6	49.6	49.6	69	39.9	3	6	270	0.00	29.693 
04:25	49.5	49.5	49.5	69	39.8	3	10	270	0.00	29.693 
04:30	49.5	48.3	49.5	69	39.8	4	11	270	0.00	29.695 
04:35	49.5	48.3	49.5	67	39.0	4	11	270	0.00	29.695 
04:40	49.2	47.3	49.2	64	37.5	5	11	270	0.00	29.695 
04:45	49.2	47.3	49.2	64	37.5	5	9	270	0.00	29.711 
04:50	48.9	45.9	48.9	61	36.0	7	14	270	0.00	29.711 
04:55	48.8	44.9	48.8	61	36.0	9	16	270	0.00	29.711 
05:00	48.6	45.5	48.6	62	36.2	7	14	270	0.00	29.703 
05:05	48.6	46.6	48.6	63	36.6	5	9	270	0.00	29.703 
05:10	48.5	46.5	48.5	64	36.9	5	12	270	0.00	29.703 
05:15	48.5	47.1	48.5	65	37.3	4	9	270	0.00	29.713 
05:20	48.3	46.9	48.3	65	37.1	4	10	270	0.00	29.713 
05:25	48.2	46.8	48.2	65	37.0	4	7	270	0.00	29.713 
05:30	48.2	48.2	48.2	66	37.4	3	5	248	0.00	29.713 
05:35	48.0	48.0	48.0	67	37.6	3	6	270	0.00	29.713 
05:40	48.0	48.0	48.0	68	37.9	3	5	248	0.00	29.713 
05:45	48.0	48.0	48.0	69	38.3	2	6	248	0.00	29.716 
05:50	48.0	48.0	48.0	69	38.3	3	6	270	0.00	29.716 
05:55	48.0	48.0	48.0	70	38.7	3	7	270	0.00	29.716 
06:00	48.2	48.2	48.2	70	38.9	3	6	270	0.00	29.718 
06:05	48.2	48.2	48.2	71	39.2	3	5	270	0.00	29.718 
06:10	48.2	48.2	48.2	71	39.2	3	5	270	0.00	29.718 
06:15	48.3	48.3	48.3	69	38.6	3	9	292	0.00	29.725 
06:20	48.3	46.9	48.3	68	38.2	4	9	270	0.00	29.725 
06:25	48.3	46.2	48.3	64	36.7	5	9	270	0.00	29.725 
06:30	48.3	46.2	48.3	63	36.3	5	11	270	0.00	29.729 
06:35	48.3	45.6	48.3	62	35.9	6	13	270	0.00	29.729 
06:40	48.3	46.2	48.3	62	35.9	5	9	270	0.00	29.729 
06:45	48.2	46.8	48.2	63	36.2	4	8	270	0.00	29.735 
06:50	48.2	46.8	48.2	63	36.2	4	11	270	0.00	29.735 
06:55	48.0	45.9	48.0	63	36.0	5	10	270	0.00	29.735 
07:00	48.0	48.0	48.0	64	36.4	3	7	270	0.00	29.741 
07:05	47.9	45.8	47.9	64	36.3	5	14	270	0.00	29.741 
07:10	47.7	45.5	47.7	63	35.7	5	10	270	0.00	29.741 
07:15	47.6	46.1	47.6	63	35.6	4	11	270	0.00	29.746 
07:20	47.6	44.8	47.6	63	35.6	6	13	270	0.00	29.746 
07:25	47.6	45.4	47.6	62	35.2	5	10	270	0.00	29.746 
07:30	47.6	45.4	47.6	63	35.6	5	9	270	0.00	29.757 
07:35	47.6	45.4	47.6	64	36.0	5	11	270	0.00	29.757 
07:40	47.4	45.9	47.4	65	36.2	4	7	270	0.00	29.757 
07:45	47.4	45.2	47.4	65	36.2	5	13	270	0.00	29.759 
07:50	47.4	45.2	47.4	65	36.2	5	12	270	0.00	29.759 
07:55	47.3	45.0	47.3	64	35.7	5	14	270	0.00	29.759 
08:00	47.3	45.0	47.3	65	36.1	5	10	292	0.00	29.760 
08:05	47.3	43.9	47.3	65	36.1	7	17	270	0.00	29.760 
08:10	47.1	47.1	47.1	66	36.3	3	7	248	0.00	29.760 
08:15	47.1	44.2	47.1	65	35.9	6	13	270	0.00	29.768 
08:20	47.1	44.2	47.1	65	35.9	6	13	270	0.00	29.768 
08:25	47.1	44.2	47.1	65	35.9	6	10	270	0.00	29.768 
08:30	47.1	44.8	47.1	65	35.9	5	14	270	0.00	29.772 
08:35	47.1	44.8	47.1	65	35.9	5	14	270	0.00	29.772 
08:40	47.0	44.7	47.0	66	36.2	5	15	270	0.00	29.772 
08:45	46.8	45.2	46.8	67	36.4	4	9	292	0.00	29.781 
08:50	46.8	45.2	46.8	68	36.8	4	7	248	0.00	29.781 
08:55	46.7	44.3	46.7	68	36.7	5	11	270	0.00	29.781 
09:00	46.5	44.1	46.5	69	36.9	5	11	270	0.00	29.792 
09:05	46.4	43.4	46.4	69	36.8	6	11	270	0.00	29.792 
09:10	46.4	44.7	46.4	69	36.8	4	8	270	0.00	29.792 
09:15	46.4	44.0	46.4	70	37.2	5	11	270	0.00	29.797 
09:20	46.5	44.1	46.5	70	37.3	5	16	270	0.00	29.797 
09:25	46.7	45.1	46.7	71	37.8	4	10	270	0.00	29.797 
09:30	46.7	43.7	46.7	70	37.4	6	12	270	0.00	29.799 
09:35	47.0	45.4	47.0	70	37.7	4	10	270	0.00	29.799 
09:40	47.3	45.8	47.3	70	38.0	4	10	270	0.00	29.799 
09:45	47.1	45.5	47.1	70	37.8	4	10	270	0.00	29.807 
09:50	47.0	45.4	47.0	70	37.7	4	7	270	0.00	29.807 
09:55	46.8	45.2	46.8	71	37.9	4	14	270	0.00	29.807 
10:00	46.5	44.8	46.5	72	38.0	4	14	270	0.00	29.815 
10:05	46.2	43.1	46.2	73	38.0	6	11	270	0.00	29.815 
10:10	45.5	42.9	45.5	73	37.4	5	12	292	0.00	29.815 
10:15	44.5	42.5	44.5	73	36.4	4	10	292	0.00	29.845 
10:20	44.2	41.4	44.2	73	36.1	5	12	270	0.00	29.845 
10:25	44.5	44.5	44.5	73	36.4	3	7	270	0.00	29.845 
10:30	44.9	44.9	44.9	74	37.1	3	7	338	0.00	29.853 
10:35	44.9	43.0	44.9	72	36.4	4	9	292	0.00	29.853 
10:40	45.1	45.1	45.1	72	36.6	3	9	270	0.00	29.853 
10:45	45.1	43.2	45.1	71	36.3	4	9	270	0.00	29.865 
10:50	44.8	44.8	44.8	69	35.3	3	6	315	0.00	29.865 
10:55	44.9	44.9	44.9	68	35.0	3	6	292	0.00	29.865 
11:00	45.1	43.2	45.1	67	34.8	4	10	315	0.00	29.876 
11:05	45.1	43.2	45.1	66	34.4	4	12	292	0.00	29.876 
11:10	45.2	43.3	45.2	65	34.1	4	10	292	0.00	29.876 
11:15	45.8	44.0	45.8	66	35.1	4	9	270	0.00	29.880 
11:20	45.7	43.2	45.7	65	34.6	5	11	270	0.00	29.880 
11:25	45.7	45.7	45.7	65	34.6	3	6	270	0.00	29.880 
11:30	45.7	43.9	45.7	66	35.0	4	13	270	0.00	29.891 
11:35	46.1	44.4	46.1	65	35.0	4	10	292	0.00	29.891 
11:40	46.8	44.5	46.8	63	34.9	5	11	292	0.00	29.891 
11:45	48.2	46.1	48.2	60	35.0	5	13	270	0.00	29.892 
11:50	48.5	46.5	48.5	57	34.0	5	11	270	0.00	29.892 
11:55	48.8	46.8	48.8	57	34.3	5	11	270	0.00	29.892 
12:00	48.2	46.8	48.2	58	34.1	4	9	270	0.00	29.903 
12:05	47.9	45.8	47.9	57	33.4	5	14	315	0.00	29.903 
12:10	47.9	45.8	47.9	57	33.4	5	12	315	0.00	29.903 
12:15	48.0	46.6	48.0	58	33.9	4	12	315	0.00	29.917 
12:20	47.7	46.2	47.7	59	34.1	4	9	292	0.00	29.917 
12:25	47.6	46.1	47.6	60	34.4	4	7	270	0.00	29.917 
12:30	47.4	45.9	47.4	60	34.2	4	10	270	0.00	29.929 
12:35	47.7	47.7	47.7	59	34.1	3	7	270	0.00	29.929 
12:40	47.7	47.7	47.7	60	34.5	3	7	315	0.00	29.929 
12:45	47.4	45.2	47.4	60	34.2	5	10	315	0.00	29.942 
12:50	47.4	45.2	47.4	61	34.6	5	10	270	0.00	29.942 
12:55	47.6	46.1	47.6	61	34.8	4	10	315	0.00	29.942 
13:00	48.0	48.0	48.0	61	35.2	3	7	315	0.00	29.948 
13:05	47.9	46.4	47.9	60	34.7	4	10	315	0.00	29.948 
13:10	48.8	48.8	48.8	61	36.0	3	6	270	0.00	29.948 
13:15	48.5	47.1	48.5	60	35.3	4	10	292	0.00	29.957 
13:20	47.7	45.5	47.7	62	35.3	5	11	270	0.00	29.957 
13:25	48.6	47.3	48.6	64	37.0	4	9	270	0.00	29.957 
13:30	48.3	46.9	48.3	60	35.1	4	11	292	0.00	29.965 
13:35	47.9	46.4	47.9	61	35.1	4	10	315	0.00	29.965 
13:40	47.7	45.5	47.7	60	34.5	5	12	270	0.00	29.965 
13:45	48.3	46.2	48.3	61	35.5	5	12	270	0.00	29.972 
13:50	49.2	46.7	49.2	59	35.5	6	11	270	0.00	29.972 
13:55	49.6	47.7	49.6	58	35.4	5	14	270	0.00	29.972 
14:00	48.6	46.6	48.6	58	34.5	5	12	270	0.00	29.977 
14:05	47.7	45.5	47.7	60	34.5	5	9	270	0.00	29.977 
14:10	47.4	45.9	47.4	62	35.0	4	6	315	0.00	29.977 
14:15	47.3	45.8	47.3	62	34.9	4	7	315	0.00	29.995 
14:20	47.4	45.9	47.4	62	35.0	4	10	270	0.00	29.995 
14:25	47.6	47.6	47.6	61	34.8	3	7	270	0.00	29.995 
14:30	48.2	46.8	48.2	63	36.2	4	10	270	0.00	29.995 
14:35	48.3	46.9	48.3	61	35.5	4	9	292	0.00	29.995 
14:40	48.6	46.6	48.6	59	34.9	5	10	270	0.00	29.995 
14:45	49.1	47.2	49.1	58	35.0	5	11	338	0.00	29.995 
14:50	49.5	48.3	49.5	58	35.3	4	9	292	0.00	29.995 
14:55	49.4	47.0	49.4	58	35.2	6	14	292	0.00	29.995 
15:00	49.1	47.8	49.1	59	35.4	4	10	270	0.00	30.007 
15:05	49.2	47.9	49.2	59	35.5	4	9	338	0.00	30.007 
15:10	48.9	46.9	48.9	59	35.2	5	13	315	0.00	30.007 
15:15	48.8	46.8	48.8	59	35.1	5	10	315	0.00	30.014 
15:20	48.6	46.6	48.6	60	35.3	5	9	292	0.00	30.014 
15:25	49.1	47.2	49.1	60	35.8	5	7	292	0.00	30.014 
15:30	48.5	47.1	48.5	60	35.3	4	10	315	0.00	30.024 
15:35	48.0	46.6	48.0	62	35.6	4	7	315	0.00	30.024 
15:40	48.8	46.8	48.8	62	36.4	5	9	270	0.00	30.024 
15:45	48.8	47.5	48.8	61	36.0	4	10	270	0.00	30.032 
15:50	47.9	45.8	47.9	62	35.5	5	10	315	0.00	30.032 
15:55	47.3	45.0	47.3	63	35.4	5	12	270	0.00	30.032 
16:00	47.3	45.8	47.3	63	35.4	4	9	270	0.00	30.043 
16:05	47.3	45.0	47.3	63	35.4	5	8	270	0.00	30.043 
16:10	47.4	45.9	47.4	64	35.8	4	9	270	0.00	30.043 
16:15	47.4	45.9	47.4	64	35.8	4	10	315	0.00	30.048 
16:20	47.9	45.8	47.9	63	35.9	5	11	270	0.00	30.048 
16:25	48.5	47.1	48.5	63	36.5	4	9	270	0.00	30.048 
16:30	48.6	47.3	48.6	63	36.6	4	9	270	0.00	30.047 
16:35	48.0	48.0	48.0	63	36.0	3	7	270	0.00	30.047 
16:40	47.6	46.1	47.6	64	36.0	4	10	292	0.00	30.047 
16:45	48.0	48.0	48.0	64	36.4	3	9	338	0.00	30.055 
16:50	48.2	45.5	48.2	60	35.0	6	13	315	0.00	30.055 
16:55	47.4	45.2	47.4	63	35.4	5	11	315	0.00	30.055 
17:00	47.0	45.4	47.0	64	35.5	4	11	292	0.00	30.065 
17:05	47.6	47.6	47.6	62	35.2	3	9	248	0.00	30.065 
17:10	48.2	48.2	48.2	60	35.0	3	7	315	0.00	30.065 
17:15	48.0	46.6	48.0	60	34.8	4	9	270	0.00	30.072 
17:20	47.7	47.7	47.7	60	34.5	3	10	292	0.00	30.072 
17:25	47.7	47.7	47.7	60	34.5	3	7	315	0.00	30.072 
17:30	47.4	45.9	47.4	61	34.6	4	11	315	0.00	30.077 
17:35	46.7	45.1	46.7	68	36.7	4	18	270	0.00	30.077 
17:40	47.0	44.7	47.0	67	36.6	5	9	292	0.00	30.077 
17:45	47.6	45.4	47.6	65	36.4	5	10	315	0.00	30.084 
17:50	47.9	47.9	47.9	65	36.7	3	7	270	0.00	30.084 
17:55	47.6	47.6	47.6	63	35.6	3	7	315	0.00	30.084 
18:00	47.7	47.7	47.7	62	35.3	2	10	270	0.00	30.086 
18:05	47.7	47.7	47.7	61	34.9	3	7	270	0.00	30.086 
18:10	47.4	47.4	47.4	62	35.0	3	10	315	0.00	30.086 
18:15	46.2	46.2	46.2	69	36.6	3	6	292	0.00	30.101 
18:20	45.5	45.5	45.5	74	37.7	2	9	270	0.00	30.101 
18:25	45.7	45.7	45.7	76	38.6	2	4	315	0.00	30.101 
18:30	45.5	45.5	45.5	75	38.0	2	5	315	0.00	30.105 
18:35	45.4	45.4	45.4	75	37.9	1	3	270	0.00	30.105 
18:40	45.5	45.5	45.5	74	37.7	2	4	292	0.00	30.105 
18:45	45.5	45.5	45.5	73	37.4	2	5	270	0.00	30.111 
18:50	46.1	46.1	46.1	71	37.2	2	4	270	0.00	30.111 
18:55	46.5	46.5	46.5	69	36.9	3	5	270	0.00	30.111 
19:00	46.7	46.7	46.7	67	36.3	3	6	315	0.00	30.112 
19:05	46.4	46.4	46.4	66	35.7	3	7	270	0.00	30.112 
19:10	46.1	46.1	46.1	67	35.8	2	7	315	0.00	30.112 
19:15	46.0	46.0	46.0	67	35.7	2	5	315	0.00	30.122 
19:20	45.8	45.8	45.8	68	35.8	1	4	315	0.00	30.122 
19:25	45.8	45.8	45.8	68	35.8	3	7	292	0.00	30.122 
19:30	45.8	45.8	45.8	69	36.2	2	5	248	0.00	30.124 
19:35	45.7	45.7	45.7	68	35.8	2	5	292	0.00	30.124 
19:40	46.1	46.1	46.1	68	36.1	2	7	315	0.00	30.124 
19:45	46.2	46.2	46.2	66	35.5	1	3	315	0.00	30.128 
19:50	46.2	46.2	46.2	65	35.1	3	9	270	0.00	30.128 
19:55	46.1	46.1	46.1	65	35.0	2	5	315	0.00	30.128 
20:00	45.8	45.8	45.8	65	34.7	1	4	338	0.00	30.132 
20:05	45.8	45.8	45.8	66	35.1	1	4	292	0.00	30.132 
20:10	45.7	45.7	45.7	67	35.4	1	3	292	0.00	30.132 
20:15	45.7	45.7	45.7	68	35.8	1	3	292	0.00	30.139 
20:20	45.5	45.5	45.5	66	34.8	1	5	292	0.00	30.139 
20:25	45.4	45.4	45.4	67	35.1	1	4	292	0.00	30.139 
20:30	45.4	45.4	45.4	67	35.1	1	6	338	0.00	30.147 
20:35	45.2	45.2	45.2	67	34.9	1	3	315	0.00	30.147 
20:40	45.2	45.2	45.2	67	34.9	1	3	315	0.00	30.147 
20:45	45.1	45.1	45.1	67	34.8	1	3	315	0.00	30.155 
20:50	45.1	45.1	45.1	67	34.8	1	3	315	0.00	30.155 
20:55	45.1	45.1	45.1	66	34.4	1	4	292	0.00	30.155 
21:00	44.9	44.9	44.9	67	34.6	1	5	315	0.00	30.159 
21:05	44.9	44.9	44.9	67	34.6	1	5	315	0.00	30.159 
21:10	44.8	44.8	44.8	67	34.5	1	4	315	0.00	30.159 
21:15	44.8	44.8	44.8	67	34.5	1	3	270	0.00	30.163 
21:20	44.6	44.6	44.6	68	34.7	0	1	270	0.00	30.163 
21:25	44.6	44.6	44.6	68	34.7	0	2	270	0.00	30.163 
21:30	44.6	44.6	44.6	69	35.1	0	1	315	0.00	30.171 
21:35	44.6	44.6	44.6	69	35.1	1	3	315	0.00	30.171 
21:40	44.6	44.6	44.6	70	35.4	0	2	315	0.00	30.171 
21:45	44.5	44.5	44.5	70	35.3	0	3	315	0.00	30.174 
21:50	44.3	44.3	44.3	70	35.1	0	2	315	0.00	30.174 
21:55	44.2	44.2	44.2	70	35.0	1	2	315	0.00	30.174 
22:00	43.9	43.9	43.9	70	34.8	1	3	315	0.00	30.185 
22:05	43.8	43.8	43.8	70	34.7	1	3	315	0.00	30.185 
22:10	43.8	43.8	43.8	70	34.7	1	3	315	0.00	30.185 
22:15	43.5	43.5	43.5	71	34.7	0	1	315	0.00	30.189 
22:20	43.3	43.3	43.3	71	34.5	0	1	315	0.00	30.189 
22:25	43.1	43.1	43.1	72	34.7	0	2	315	0.00	30.189 
22:30	42.9	42.9	42.9	73	34.9	0	2	315	0.00	30.190 
22:35	42.8	42.8	42.8	73	34.8	1	2	315	0.00	30.190 
22:40	42.8	42.8	42.8	73	34.8	0	2	315	0.00	30.190 
22:45	42.6	42.6	42.6	74	34.9	0	2	315	0.00	30.192 
22:50	42.5	42.5	42.5	74	34.8	0	2	315	0.00	30.192 
22:55	42.5	42.5	42.5	74	34.8	1	3	315	0.00	30.192 
23:00	42.3	42.3	42.3	75	35.0	0	2	315	0.00	30.197 
23:05	42.3	42.3	42.3	75	35.0	1	3	315	0.00	30.197 
23:10	42.5	42.5	42.5	75	35.1	0	2	315	0.00	30.197 
23:15	42.3	42.3	42.3	76	35.3	0	2	315	0.00	30.200 
23:20	42.5	42.5	42.5	76	35.5	0	2	315	0.00	30.200 
23:25	42.5	42.5	42.5	76	35.5	1	3	315	0.00	30.200 
23:30	42.6	42.6	42.6	76	35.6	1	2	315	0.00	30.202 
23:35	42.6	42.6	42.6	76	35.6	1	3	315	0.00	30.202 
23:40	42.8	42.8	42.8	76	35.8	0	1	315	0.00	30.202 
23:45	42.9	42.9	42.9	76	35.9	1	3	315	0.00	30.204 
23:50	43.1	43.1	43.1	76	36.1	1	3	338	0.00	30.204 
23:55	43.1	43.1	43.1	76	36.1	0	2	338	0.00	30.204 

CoCoRaHS
IN-AL-39
A2 Web Hosting
Creative Commons License
GoDaddy
search engine by freefind advanced

loaded 2018-11-20 08:32:18 • last modified 2010-11-18 10:43:29
Privacy PolicyDisclaimer
• wx.awcolley.com is powered by PmWiki v.2002016 •
• all content (unless otherwise noted) © 2018 A W Colley